createdAt,value
2022-12-05T00:00:22.235Z,26.07
2022-12-05T00:03:11.961Z,26.23
2022-12-05T00:06:00.385Z,34.90
2022-12-05T00:08:48.999Z,30.50
2022-12-05T00:11:39.366Z,28.90
2022-12-05T00:14:27.761Z,28.87
2022-12-05T00:17:16.189Z,27.63
2022-12-05T00:20:07.870Z,28.23
2022-12-05T00:22:56.277Z,30.03
2022-12-05T00:25:44.774Z,27.33
2022-12-05T00:28:33.294Z,27.37
2022-12-05T00:31:23.333Z,29.17
2022-12-05T00:34:12.021Z,27.43
2022-12-05T00:37:01.825Z,25.67
2022-12-05T00:39:50.204Z,26.60
2022-12-05T00:42:38.650Z,24.97
2022-12-05T00:45:27.061Z,25.73
2022-12-05T00:48:15.462Z,24.17
2022-12-05T00:51:03.919Z,26.10
2022-12-05T00:53:53.686Z,24.53
2022-12-05T00:56:42.294Z,25.43
2022-12-05T00:59:30.847Z,24.03
2022-12-05T01:02:19.245Z,22.90
2022-12-05T01:05:08.883Z,25.30
2022-12-05T01:07:57.293Z,26.47
2022-12-05T01:10:55.153Z,28.40
2022-12-05T01:13:43.673Z,23.60
2022-12-05T01:16:34.605Z,25.43
2022-12-05T01:19:24.667Z,28.33
2022-12-05T01:22:13.110Z,24.50
2022-12-05T01:25:01.522Z,25.90
2022-12-05T01:27:51.287Z,27.50
2022-12-05T01:30:40.091Z,25.60
2022-12-05T01:33:28.508Z,24.47
2022-12-05T01:36:17.037Z,26.63
2022-12-05T01:39:06.350Z,27.47
2022-12-05T01:41:54.809Z,24.97
2022-12-05T01:45:16.393Z,27.53
2022-12-05T01:48:08.736Z,34.93
2022-12-05T01:50:57.101Z,27.03
2022-12-05T01:53:45.464Z,24.17
2022-12-05T01:56:34.083Z,27.63
2022-12-05T01:59:23.417Z,25.77
2022-12-05T02:02:13.304Z,27.50
2022-12-05T02:05:05.092Z,28.53
2022-12-05T02:07:53.505Z,26.70
2022-12-05T02:10:44.226Z,23.20
2022-12-05T02:13:53.879Z,31.03
2022-12-05T02:16:52.007Z,25.70
2022-12-05T02:20:05.015Z,27.07
2022-12-05T02:23:34.564Z,28.63
2022-12-05T02:26:52.550Z,29.57
2022-12-05T02:30:03.377Z,62.67
2022-12-05T02:33:06.892Z,115.10
2022-12-05T02:36:00.452Z,57.40
2022-12-05T02:38:52.590Z,51.33
2022-12-05T02:41:44.660Z,66.13
2022-12-05T02:44:34.672Z,49.23
2022-12-05T02:47:27.347Z,57.50
2022-12-05T02:50:19.854Z,38.90
2022-12-05T02:53:10.652Z,28.60
2022-12-05T02:55:59.215Z,70.43
2022-12-05T02:58:51.904Z,73.20
2022-12-05T03:01:40.669Z,48.50
2022-12-05T03:04:30.527Z,34.23
2022-12-05T03:07:19.077Z,75.97
2022-12-05T03:10:09.257Z,90.30
2022-12-05T03:12:59.114Z,28.93
2022-12-05T03:15:49.913Z,54.03
2022-12-05T03:18:40.251Z,45.17
2022-12-05T03:21:35.629Z,64.47
2022-12-05T03:24:24.025Z,48.33
2022-12-05T03:27:17.150Z,77.43
2022-12-05T03:30:07.771Z,50.60
2022-12-05T03:32:59.452Z,139.43
2022-12-05T03:35:52.396Z,174.03
2022-12-05T03:38:46.814Z,54.93
2022-12-05T03:41:39.711Z,184.63
2022-12-05T03:44:32.309Z,29.43
2022-12-05T03:47:23.444Z,42.83
2022-12-05T03:50:14.714Z,47.00
2022-12-05T03:53:21.575Z,52.53
2022-12-05T03:56:14.391Z,40.93
2022-12-05T03:59:06.374Z,35.87
2022-12-05T04:01:55.671Z,42.50
2022-12-05T04:04:48.387Z,96.77
2022-12-05T04:07:39.304Z,105.70
2022-12-05T04:10:29.752Z,43.77
2022-12-05T04:13:22.453Z,37.40
2022-12-05T04:16:33.243Z,43.23
2022-12-05T04:19:24.870Z,39.60
2022-12-05T04:22:12.288Z,32.37
2022-12-05T04:25:19.571Z,32.53
2022-12-05T04:28:21.922Z,42.53
2022-12-05T04:31:13.051Z,39.87
2022-12-05T04:34:05.176Z,30.33
2022-12-05T04:36:56.411Z,35.03
2022-12-05T04:39:48.463Z,31.27
2022-12-05T04:42:37.204Z,30.77
2022-12-05T04:45:26.987Z,31.43
2022-12-05T04:48:16.471Z,29.90
2022-12-05T04:51:05.168Z,28.43
2022-12-05T04:53:55.638Z,29.10
2022-12-05T04:56:44.537Z,27.67
2022-12-05T04:59:32.937Z,29.00
2022-12-05T05:02:25.864Z,28.43
2022-12-05T05:05:14.958Z,27.23
2022-12-05T05:08:03.421Z,26.57
2022-12-05T05:10:59.492Z,30.77
2022-12-05T05:13:48.048Z,26.20
2022-12-05T05:16:38.374Z,27.50
2022-12-05T05:19:28.190Z,26.33
2022-12-05T05:22:16.601Z,24.40
2022-12-05T05:25:05.518Z,25.00
2022-12-05T05:27:55.594Z,30.03
2022-12-05T05:30:44.019Z,24.60
2022-12-05T05:33:32.525Z,23.37
2022-12-05T05:36:23.576Z,29.07
2022-12-05T05:39:14.858Z,25.27
2022-12-05T05:42:03.265Z,24.63
2022-12-05T05:44:51.661Z,24.00
2022-12-05T05:47:40.161Z,23.57
2022-12-05T05:50:28.647Z,24.63
2022-12-05T05:53:18.413Z,24.27
2022-12-05T05:56:09.006Z,23.33
2022-12-05T05:58:58.811Z,20.60
2022-12-05T06:01:47.275Z,22.20
2022-12-05T06:04:36.282Z,23.13
2022-12-05T06:07:25.066Z,22.90
2022-12-05T06:10:15.014Z,22.77
2022-12-05T06:13:03.423Z,22.70
2022-12-05T06:15:52.314Z,20.83
2022-12-05T06:18:40.849Z,21.40
2022-12-05T06:21:29.337Z,22.67
2022-12-05T06:24:17.820Z,20.97
2022-12-05T06:27:07.590Z,22.87
2022-12-05T06:29:56.187Z,19.73
2022-12-05T06:32:44.824Z,21.27
2022-12-05T06:35:33.288Z,19.23
2022-12-05T06:38:21.759Z,18.93
2022-12-05T06:41:11.303Z,21.57
2022-12-05T06:44:02.421Z,18.97
2022-12-05T06:46:51.208Z,20.17
2022-12-05T06:49:39.615Z,19.77
2022-12-05T06:52:28.031Z,18.40
2022-12-05T06:55:16.540Z,19.03
2022-12-05T06:58:04.942Z,19.80
2022-12-05T07:01:12.633Z,20.97
2022-12-05T07:03:45.029Z,22.33
2022-12-05T07:06:13.985Z,20.93
2022-12-05T07:08:42.434Z,21.50
2022-12-05T07:11:11.150Z,21.87
2022-12-05T07:13:39.399Z,21.40
2022-12-05T07:16:09.345Z,20.97
2022-12-05T07:18:37.682Z,24.53
2022-12-05T07:21:12.255Z,24.07
2022-12-05T07:23:41.106Z,27.00
2022-12-05T07:26:10.454Z,24.17
2022-12-05T07:28:38.614Z,25.37
2022-12-05T07:31:09.385Z,25.53
2022-12-05T07:33:37.938Z,23.40
2022-12-05T07:36:08.154Z,26.27
2022-12-05T07:38:36.297Z,24.70
2022-12-05T07:41:11.637Z,27.63
2022-12-05T07:43:41.405Z,24.43
2022-12-05T07:46:12.227Z,25.30
2022-12-05T07:48:40.676Z,27.10
2022-12-05T07:51:09.465Z,25.40
2022-12-05T07:53:37.880Z,26.50
2022-12-05T07:56:07.774Z,26.17
2022-12-05T07:58:36.081Z,24.80
2022-12-05T08:01:08.168Z,27.77
2022-12-05T08:03:38.381Z,26.07
2022-12-05T08:06:07.735Z,25.63
2022-12-05T08:08:35.899Z,29.77
2022-12-05T08:11:05.071Z,24.03
2022-12-05T08:13:33.306Z,26.97
2022-12-05T08:16:04.662Z,24.00
2022-12-05T08:18:32.897Z,24.33
2022-12-05T08:21:06.517Z,24.87
2022-12-05T08:23:34.966Z,24.30
2022-12-05T08:26:04.003Z,26.70
2022-12-05T08:28:32.316Z,25.70
2022-12-05T08:31:05.913Z,26.27
2022-12-05T08:33:34.147Z,24.83
2022-12-05T08:36:03.396Z,26.93
2022-12-05T08:38:33.025Z,23.53
2022-12-05T08:41:02.276Z,27.50
2022-12-05T08:43:30.673Z,26.00
2022-12-05T08:45:58.838Z,30.37
2022-12-05T08:48:29.505Z,24.83
2022-12-05T08:50:58.027Z,24.40
2022-12-05T08:53:26.578Z,24.23
2022-12-05T08:55:56.033Z,26.60
2022-12-05T08:58:24.157Z,26.03
2022-12-05T09:00:52.332Z,24.83
2022-12-05T09:03:20.455Z,23.53
2022-12-05T09:05:54.549Z,28.40
2022-12-05T09:08:23.166Z,24.77
2022-12-05T09:10:51.355Z,23.27
2022-12-05T09:13:22.651Z,24.50
2022-12-05T09:15:50.909Z,25.40
2022-12-05T09:18:19.148Z,24.13
2022-12-05T09:20:47.341Z,24.07
2022-12-05T09:23:16.276Z,23.37
2022-12-05T09:25:44.558Z,22.03
2022-12-05T09:28:12.662Z,23.97
2022-12-05T09:30:43.841Z,23.67
2022-12-05T09:33:12.024Z,26.00
2022-12-05T09:35:40.972Z,24.00
2022-12-05T09:38:09.101Z,26.80
2022-12-05T09:40:40.497Z,24.37
2022-12-05T09:43:08.628Z,26.10
2022-12-05T09:45:38.070Z,24.63
2022-12-05T09:48:11.360Z,24.10
2022-12-05T09:50:44.576Z,24.27
2022-12-05T09:53:16.702Z,25.20
2022-12-05T09:55:50.040Z,21.83
2022-12-05T09:58:29.412Z,23.40
2022-12-05T10:01:03.576Z,23.40
2022-12-05T10:03:40.087Z,23.00
2022-12-05T10:06:16.198Z,21.90
2022-12-05T10:09:06.328Z,19.93
2022-12-05T10:11:38.294Z,22.80
2022-12-05T10:14:10.600Z,20.70
2022-12-05T10:16:41.232Z,20.50
2022-12-05T10:19:14.046Z,22.00
2022-12-05T10:21:48.841Z,20.43
2022-12-05T10:24:18.590Z,22.07
2022-12-05T10:26:49.634Z,33.43
2022-12-05T10:29:24.885Z,23.23
2022-12-05T10:31:53.937Z,23.13
2022-12-05T10:34:29.456Z,22.60
2022-12-05T10:37:01.596Z,22.10
2022-12-05T10:39:29.736Z,21.93
2022-12-05T10:41:57.841Z,21.67
2022-12-05T10:44:27.023Z,21.17
2022-12-05T10:46:55.172Z,19.20
2022-12-05T10:49:24.670Z,20.80
2022-12-05T10:51:52.838Z,21.23
2022-12-05T10:54:23.490Z,19.57
2022-12-05T10:56:52.573Z,22.23
2022-12-05T10:59:23.387Z,20.87
2022-12-05T11:01:53.626Z,20.97
2022-12-05T11:04:30.159Z,23.70
2022-12-05T11:07:00.424Z,20.17
2022-12-05T11:09:29.742Z,19.20
2022-12-05T11:12:18.236Z,20.20
2022-12-05T11:15:03.223Z,22.37
2022-12-05T11:17:34.440Z,21.57
2022-12-05T11:20:05.387Z,19.00
2022-12-05T11:22:35.229Z,20.60
2022-12-05T11:25:03.417Z,19.37
2022-12-05T11:27:32.940Z,21.97
2022-12-05T11:30:03.376Z,23.03
2022-12-05T11:32:33.385Z,20.50
2022-12-05T11:35:10.034Z,24.57
2022-12-05T11:37:41.668Z,22.07
2022-12-05T11:40:18.223Z,24.77
2022-12-05T11:43:12.301Z,20.90
2022-12-05T11:45:52.440Z,22.53
2022-12-05T11:48:41.754Z,20.97
2022-12-05T11:51:30.983Z,19.33
2022-12-05T11:54:35.642Z,21.40
2022-12-05T11:57:11.438Z,20.33
2022-12-05T12:00:04.892Z,21.47
2022-12-05T12:03:05.053Z,20.23
2022-12-05T12:05:36.297Z,19.37
2022-12-05T12:08:13.118Z,20.00
2022-12-05T12:10:48.475Z,21.17
2022-12-05T12:13:28.885Z,20.10
2022-12-05T12:16:08.802Z,18.93
2022-12-05T12:19:08.982Z,20.07
2022-12-05T12:21:51.297Z,21.43
2022-12-05T12:24:28.087Z,17.40
2022-12-05T12:27:04.034Z,20.30
2022-12-05T12:29:46.550Z,21.97
2022-12-05T12:32:25.181Z,22.33
2022-12-05T12:35:28.903Z,22.30
2022-12-05T12:38:17.161Z,25.33
2022-12-05T12:40:49.922Z,22.00
2022-12-05T12:43:52.594Z,21.87
2022-12-05T12:46:25.276Z,21.47
2022-12-05T12:49:09.142Z,20.87
2022-12-05T12:51:51.575Z,17.93
2022-12-05T12:55:04.683Z,21.07
2022-12-05T12:57:46.646Z,21.27
2022-12-05T13:00:23.705Z,20.97
2022-12-05T13:02:53.407Z,22.03
2022-12-05T13:05:29.225Z,22.77
2022-12-05T13:08:00.111Z,21.47
2022-12-05T13:10:33.073Z,19.77
2022-12-05T13:13:03.332Z,18.57
2022-12-05T13:15:35.884Z,18.13
2022-12-05T13:18:04.642Z,19.07
2022-12-05T13:20:35.743Z,18.70
2022-12-05T13:23:07.924Z,19.87
2022-12-05T13:25:38.881Z,20.33
2022-12-05T13:28:25.535Z,18.63
2022-12-05T13:31:01.716Z,19.00
2022-12-05T13:33:34.324Z,22.57
2022-12-05T13:36:28.423Z,18.13
2022-12-05T13:39:18.379Z,21.53
2022-12-05T13:42:04.960Z,21.27
2022-12-05T13:44:40.872Z,21.37
2022-12-05T13:47:21.902Z,19.60
2022-12-05T13:49:52.814Z,19.70
2022-12-05T13:52:24.066Z,18.70
2022-12-05T13:54:57.872Z,26.53
2022-12-05T13:57:54.804Z,20.63
2022-12-05T14:00:34.027Z,20.00
2022-12-05T14:03:05.381Z,18.33
2022-12-05T14:05:41.475Z,19.77
2022-12-05T14:08:53.052Z,20.73
2022-12-05T14:11:21.898Z,18.43
2022-12-05T14:13:50.333Z,20.20
2022-12-05T14:16:53.309Z,16.93
2022-12-05T14:19:53.198Z,19.90
2022-12-05T14:22:53.187Z,16.63
2022-12-05T14:25:31.332Z,15.83
2022-12-05T14:28:04.080Z,15.10
2022-12-05T14:30:36.172Z,17.63
2022-12-05T14:33:05.995Z,16.13
2022-12-05T14:35:43.204Z,16.43
2022-12-05T14:38:23.160Z,15.03
2022-12-05T14:40:51.667Z,18.17
2022-12-05T14:43:22.176Z,17.33
2022-12-05T14:45:59.820Z,17.97
2022-12-05T14:48:32.457Z,15.40
2022-12-05T14:51:01.254Z,15.00
2022-12-05T14:53:36.770Z,17.90
2022-12-05T14:56:26.940Z,16.80
2022-12-05T14:58:57.855Z,14.93
2022-12-05T15:01:28.555Z,12.90
2022-12-05T15:04:09.272Z,14.33
2022-12-05T15:06:46.091Z,13.20
2022-12-05T15:09:42.614Z,13.10
2022-12-05T15:12:16.248Z,13.87
2022-12-05T15:14:49.202Z,13.47
2022-12-05T15:17:19.545Z,12.67
2022-12-05T15:19:53.364Z,12.63
2022-12-05T15:22:22.596Z,13.00
2022-12-05T15:24:50.773Z,12.73
2022-12-05T15:27:19.091Z,12.20
2022-12-05T15:29:47.306Z,10.33
2022-12-05T15:32:18.522Z,8.30
2022-12-05T15:34:50.360Z,8.70
2022-12-05T15:37:20.193Z,8.73
2022-12-05T15:39:53.976Z,12.07
2022-12-05T15:42:29.020Z,11.40
2022-12-05T15:45:16.775Z,9.20
2022-12-05T15:47:46.063Z,7.10
2022-12-05T15:50:16.063Z,8.03
2022-12-05T15:52:47.143Z,9.20
2022-12-05T15:55:17.246Z,7.33
2022-12-05T15:57:47.439Z,6.53
2022-12-05T16:00:17.848Z,6.60
2022-12-05T16:02:47.699Z,12.90
2022-12-05T16:05:22.433Z,6.13
2022-12-05T16:07:51.088Z,5.90
2022-12-05T16:10:23.413Z,5.83
2022-12-05T16:12:54.362Z,6.10
2022-12-05T16:15:25.111Z,7.73
2022-12-05T16:17:55.602Z,5.63
2022-12-05T16:20:30.858Z,8.43
2022-12-05T16:23:02.403Z,6.07
2022-12-05T16:25:32.554Z,6.43
2022-12-05T16:28:16.271Z,7.37
2022-12-05T16:30:57.887Z,6.00
2022-12-05T16:33:26.739Z,6.20
2022-12-05T16:35:56.251Z,6.10
2022-12-05T16:38:25.687Z,7.37
2022-12-05T16:40:59.035Z,5.73
2022-12-05T16:43:41.120Z,8.07
2022-12-05T16:46:45.577Z,5.70
2022-12-05T16:49:20.283Z,5.57
2022-12-05T16:51:59.431Z,4.57
2022-12-05T16:54:27.552Z,4.73
2022-12-05T16:56:56.817Z,5.13
2022-12-05T16:59:27.901Z,4.13
2022-12-05T17:01:56.039Z,5.33
2022-12-05T17:04:24.347Z,4.13
2022-12-05T17:06:52.627Z,4.97
2022-12-05T17:09:22.238Z,4.40
2022-12-05T17:11:52.198Z,4.60
2022-12-05T17:14:20.410Z,4.43
2022-12-05T17:16:48.622Z,4.90
2022-12-05T17:19:16.809Z,4.13
2022-12-05T17:21:45.682Z,3.97
2022-12-05T17:24:18.239Z,5.53
2022-12-05T17:26:47.727Z,5.67
2022-12-05T17:29:15.848Z,6.10
2022-12-05T17:31:44.068Z,7.73
2022-12-05T17:34:16.732Z,5.93
2022-12-05T17:36:45.036Z,9.40
2022-12-05T17:39:13.291Z,6.27
2022-12-05T17:41:41.395Z,7.17
2022-12-05T17:44:13.596Z,5.17
2022-12-05T17:46:42.633Z,8.73
2022-12-05T17:49:13.553Z,9.27
2022-12-05T17:52:05.431Z,5.27
2022-12-05T17:54:30.769Z,8.33
2022-12-05T17:56:58.963Z,8.60
2022-12-05T17:59:28.384Z,5.93
2022-12-05T18:01:56.542Z,7.73
2022-12-05T18:04:24.686Z,6.13
2022-12-05T18:06:52.891Z,4.63
2022-12-05T18:09:21.424Z,7.47
2022-12-05T18:11:49.546Z,6.87
2022-12-05T18:14:17.715Z,4.40
2022-12-05T18:16:47.280Z,4.27
2022-12-05T18:19:15.890Z,4.53
2022-12-05T18:24:12.116Z,14.13
2022-12-05T18:26:40.250Z,9.80
2022-12-05T18:29:08.347Z,12.70
2022-12-05T18:31:38.299Z,8.93
2022-12-05T18:34:07.892Z,13.93
2022-12-05T18:36:36.062Z,9.03
2022-12-05T18:39:04.394Z,12.93
2022-12-05T18:41:32.636Z,14.40
2022-12-05T18:44:00.787Z,11.23
2022-12-05T18:46:29.251Z,10.07
2022-12-05T18:49:01.773Z,10.23
2022-12-05T18:51:32.953Z,10.83
2022-12-05T18:54:01.053Z,18.37
2022-12-05T18:56:31.272Z,11.70
2022-12-05T18:59:01.839Z,14.13
2022-12-05T19:01:31.758Z,16.20
2022-12-05T19:04:00.895Z,28.87
2022-12-05T19:06:30.442Z,28.87
2022-12-05T19:09:01.692Z,34.10
2022-12-05T19:11:30.015Z,28.23
2022-12-05T19:13:58.962Z,23.03
2022-12-05T19:16:27.300Z,16.03
2022-12-05T19:18:56.379Z,27.00
2022-12-05T19:21:24.874Z,14.50
2022-12-05T19:23:53.013Z,18.30
2022-12-05T19:26:22.719Z,11.77
2022-12-05T19:28:50.904Z,12.07
2022-12-05T19:31:21.822Z,14.53
2022-12-05T19:33:51.588Z,17.30
2022-12-05T19:36:21.401Z,11.70
2022-12-05T19:38:50.996Z,15.03
2022-12-05T19:41:22.359Z,14.73
2022-12-05T19:43:50.592Z,44.33
2022-12-05T19:46:20.886Z,19.60
2022-12-05T19:48:49.523Z,18.00
2022-12-05T19:51:17.722Z,12.10
2022-12-05T19:53:46.153Z,14.00
2022-12-05T19:56:16.248Z,9.53
2022-12-05T19:58:45.928Z,7.63
2022-12-05T20:01:15.726Z,6.47
2022-12-05T20:03:44.601Z,9.70
2022-12-05T20:06:12.873Z,8.53
2022-12-05T20:08:41.314Z,8.83
2022-12-05T20:11:10.667Z,5.67
2022-12-05T20:13:47.631Z,4.63
2022-12-05T20:16:19.492Z,6.77
2022-12-05T20:18:48.163Z,6.37
2022-12-05T20:21:17.729Z,6.87
2022-12-05T20:23:45.943Z,5.37
2022-12-05T20:26:15.813Z,4.83
2022-12-05T20:28:44.286Z,5.87
2022-12-05T20:31:14.221Z,5.40
2022-12-05T20:33:44.186Z,6.70
2022-12-05T20:36:13.498Z,4.40
2022-12-05T20:38:41.791Z,5.63
2022-12-05T20:41:11.375Z,4.60
2022-12-05T20:43:39.725Z,5.10
2022-12-05T20:46:09.193Z,5.30
2022-12-05T20:48:37.395Z,5.10
2022-12-05T20:51:08.538Z,5.27
2022-12-05T20:53:37.283Z,6.00
2022-12-05T20:56:06.518Z,6.40
2022-12-05T20:58:34.828Z,8.17
2022-12-05T21:01:03.593Z,6.23
2022-12-05T21:03:51.570Z,5.53
2022-12-05T21:06:42.785Z,5.27
2022-12-05T21:09:31.861Z,4.80
2022-12-05T21:12:20.609Z,5.47
2022-12-05T21:15:11.286Z,5.00
2022-12-05T21:17:59.694Z,6.10
2022-12-05T21:20:57.720Z,4.70
2022-12-05T21:23:48.613Z,8.17
2022-12-05T21:26:37.019Z,4.53
2022-12-05T21:29:25.381Z,5.70
2022-12-05T21:32:13.785Z,4.43
2022-12-05T21:35:03.360Z,5.97
2022-12-05T21:37:51.757Z,5.23
2022-12-05T21:40:43.547Z,5.27
2022-12-05T21:43:32.296Z,4.70
2022-12-05T21:46:20.746Z,4.40
2022-12-05T21:49:09.189Z,5.17
2022-12-05T21:51:57.547Z,4.27
2022-12-05T21:54:45.915Z,5.87
2022-12-05T21:57:38.674Z,5.50
2022-12-05T22:00:27.507Z,5.47
2022-12-05T22:03:15.974Z,4.60
2022-12-05T22:06:05.796Z,4.73
2022-12-05T22:08:54.976Z,6.90
2022-12-05T22:11:43.362Z,4.83
2022-12-05T22:14:33.139Z,7.30
2022-12-05T22:17:21.597Z,4.73
2022-12-05T22:20:10.284Z,4.90
2022-12-05T22:22:58.651Z,4.67
2022-12-05T22:25:57.628Z,4.77
2022-12-05T22:28:46.129Z,4.73
2022-12-05T22:31:35.960Z,5.70
2022-12-05T22:34:24.467Z,5.63
2022-12-05T22:37:12.848Z,4.57
2022-12-05T22:40:01.677Z,4.70
2022-12-05T22:42:50.391Z,5.07
2022-12-05T22:45:38.777Z,5.37
2022-12-05T22:48:28.518Z,4.63
2022-12-05T22:51:17.407Z,5.20
2022-12-05T22:54:06.059Z,4.57
2022-12-05T22:56:54.430Z,4.50
2022-12-05T22:59:42.814Z,4.90
2022-12-05T23:02:31.248Z,4.83
2022-12-05T23:05:21.049Z,4.40
2022-12-05T23:08:10.412Z,5.27
2022-12-05T23:10:58.966Z,4.67
2022-12-05T23:13:47.670Z,5.93
2022-12-05T23:16:36.151Z,6.87
2022-12-05T23:19:24.819Z,4.97
2022-12-05T23:22:14.545Z,5.47
2022-12-05T23:25:02.948Z,4.33
2022-12-05T23:27:51.358Z,5.73
2022-12-05T23:30:39.745Z,4.33
2022-12-05T23:33:28.154Z,4.60
2022-12-05T23:36:16.540Z,5.03
2022-12-05T23:39:06.431Z,5.03
2022-12-05T23:41:55.590Z,4.57
2022-12-05T23:44:43.970Z,8.90
2022-12-05T23:47:32.364Z,5.20
2022-12-05T23:50:20.730Z,5.13
2022-12-05T23:53:09.150Z,4.50
2022-12-05T23:56:02.716Z,5.80
2022-12-05T23:58:51.543Z,6.20
